createdAt,value
2019-06-20T00:07:21.968Z,99936.73
2019-06-20T00:22:29.875Z,99936.73
2019-06-20T00:37:37.748Z,99942.98
2019-06-20T00:52:46.652Z,99930.27
2019-06-20T01:07:54.338Z,99921.12
2019-06-20T01:23:02.342Z,99926.50
2019-06-20T01:38:10.824Z,99920.58
2019-06-20T01:53:20.656Z,99906.64
2019-06-20T02:08:28.228Z,99916.58
2019-06-20T02:23:36.947Z,99910.89
2019-06-20T02:38:46.157Z,99904.56
2019-06-20T02:53:54.250Z,99905.72
2019-06-20T03:09:02.140Z,99898.20
2019-06-20T03:24:11.013Z,99899.84
2019-06-20T03:39:20.361Z,99905.72
2019-06-20T03:54:28.971Z,99896.03
2019-06-20T04:09:36.861Z,99902.61
2019-06-20T04:24:45.054Z,99901.80
2019-06-20T04:39:52.692Z,99888.13
2019-06-20T04:55:04.301Z,99906.01
2019-06-20T05:10:12.339Z,99906.61
2019-06-20T05:25:20.177Z,99910.45
2019-06-20T05:40:30.234Z,99906.24
2019-06-20T05:55:39.128Z,99911.08
2019-06-20T06:10:47.341Z,99911.08
2019-06-20T06:25:55.516Z,99917.05
2019-06-20T06:41:03.446Z,99919.55
2019-06-20T06:56:12.348Z,99926.99
2019-06-20T07:11:20.522Z,99933.80
2019-06-20T07:26:28.286Z,99920.05
2019-06-20T07:41:35.832Z,99943.38
2019-06-20T07:56:44.227Z,99950.49
2019-06-20T08:11:51.886Z,99951.88
2019-06-20T08:27:00.428Z,99966.38
2019-06-20T08:42:08.398Z,99972.89
2019-06-20T08:57:16.679Z,99975.55
2019-06-20T09:12:24.736Z,99983.33
2019-06-20T09:27:32.608Z,99988.05
2019-06-20T09:42:40.583Z,99998.03
2019-06-20T09:57:51.884Z,100001.85
2019-06-20T10:13:00.254Z,100014.25
2019-06-20T10:28:08.705Z,100012.94
2019-06-20T10:43:16.962Z,100012.02
2019-06-20T10:58:25.690Z,100010.41
2019-06-20T11:13:33.778Z,100010.41
2019-06-20T11:28:41.711Z,99998.02
2019-06-20T11:43:49.223Z,99975.14
2019-06-20T11:58:58.425Z,99952.69
2019-06-20T12:14:06.526Z,99920.15
2019-06-20T12:29:14.527Z,99895.05
2019-06-20T12:44:22.301Z,99868.32
2019-06-20T12:59:31.078Z,99877.24
2019-06-20T13:14:39.668Z,99868.89
2019-06-20T13:29:49.443Z,99846.11
2019-06-20T13:44:57.475Z,99848.98
2019-06-20T14:00:10.801Z,99834.80
2019-06-20T14:15:19.004Z,99824.83
2019-06-20T14:30:27.739Z,99830.25
2019-06-20T14:45:37.984Z,99831.30
2019-06-20T15:00:46.991Z,99821.84
2019-06-20T15:15:56.424Z,99808.10
2019-06-20T15:31:04.277Z,99794.17
2019-06-20T15:46:13.465Z,99806.34
2019-06-20T16:01:21.037Z,99807.02
2019-06-20T16:16:27.947Z,99792.50
2019-06-20T16:31:35.914Z,99778.84
2019-06-20T16:46:43.954Z,99766.02
2019-06-20T17:01:52.893Z,99762.66
2019-06-20T17:17:10.345Z,99777.22
2019-06-20T17:32:28.994Z,99814.61
2019-06-20T17:47:49.438Z,99831.68
2019-06-20T18:03:11.804Z,99864.73
2019-06-20T18:18:24.282Z,99880.55
2019-06-20T18:33:41.723Z,99894.53
2019-06-20T18:49:06.060Z,99892.16
2019-06-20T19:04:27.053Z,99898.34
2019-06-20T19:19:43.095Z,99896.33
2019-06-20T19:35:02.564Z,99907.01
2019-06-20T19:50:24.338Z,99916.42
2019-06-20T20:05:46.422Z,99920.58
2019-06-20T20:20:58.814Z,99942.47
2019-06-20T20:36:23.909Z,99952.09
2019-06-20T20:51:33.936Z,99961.59
2019-06-20T21:06:45.310Z,99967.72
2019-06-20T21:21:57.903Z,100005.59
2019-06-20T21:37:13.263Z,100058.66
2019-06-20T21:52:24.018Z,100056.83
2019-06-20T22:07:36.100Z,100066.70
2019-06-20T22:22:55.029Z,100081.82
2019-06-20T22:38:21.203Z,100081.56
2019-06-20T22:53:42.976Z,100042.58
2019-06-20T23:09:01.828Z,100035.39
2019-06-20T23:24:16.869Z,100039.16
2019-06-20T23:39:33.263Z,100011.64
2019-06-20T23:54:48.103Z,99983.03
